Time;durP1;ratioP1;P1;durP2;ratioP2;P2;SDS_P1;SDS_P2;PMS_P1;PMS_P2;Temp;Humidity;BMP_temperature;BMP_pressure;BME280_temperature;BME280_humidity;BME280_pressure;Samples;Min_cycle;Max_cycle;Signal;HPM_P1;HPM_P2
2022/10/27 00:06:27;;;;;;;41.90;30.70;;;;;;;4.69;94.01;100240.09;420471;1272;198078;-64
2022/10/27 00:16:32;;;;;;;43.00;33.40;;;;;;;4.65;93.60;100246.63;421826;1278;142543;-64
2022/10/27 00:26:38;;;;;;;43.10;33.40;;;;;;;4.63;93.76;100251.20;420464;1274;143313;-63
2022/10/27 00:36:44;;;;;;;47.70;31.80;;;;;;;4.83;95.21;100254.45;422516;1274;142956;-62
2022/10/27 00:46:50;;;;;;;48.70;32.50;;;;;;;4.66;94.15;100264.46;421487;1275;143010;-64
2022/10/27 00:56:57;;;;;;;38.30;31.90;;;;;;;4.66;94.33;100268.62;421062;1272;142403;-64
2022/10/27 01:07:03;;;;;;;36.60;29.60;;;;;;;4.85;94.95;100267.91;420354;1281;151926;-63
2022/10/27 01:17:20;;;;;;;43.50;31.30;;;;;;;5.02;95.51;100264.96;422820;1279;144252;-63
2022/10/27 01:27:51;;;;;;;38.30;30.70;;;;;;;5.01;95.29;100265.36;421082;1272;146755;-63
2022/10/27 01:38:06;;;;;;;35.00;28.60;;;;;;;4.90;94.80;100273.85;421056;1275;142903;-63
2022/10/27 01:48:13;;;;;;;32.80;27.70;;;;;;;4.64;94.37;100271.64;420772;1279;146848;-63
2022/10/27 01:58:52;;;;;;;38.90;29.10;;;;;;;4.41;94.18;100272.61;420796;1272;183512;-64
2022/10/27 02:09:08;;;;;;;45.80;29.50;;;;;;;4.33;95.03;100276.13;420254;1275;143287;-63
2022/10/27 02:19:19;;;;;;;38.30;27.80;;;;;;;4.21;95.30;100279.04;420205;1272;202110;-63
2022/10/27 02:29:29;;;;;;;43.30;26.40;;;;;;;4.03;94.64;100284.35;420439;1275;142859;-64
2022/10/27 02:39:35;;;;;;;35.80;27.80;;;;;;;3.91;94.47;100290.73;420276;1278;143520;-63
2022/10/27 02:49:41;;;;;;;36.30;27.90;;;;;;;3.79;94.50;100290.66;420167;1275;143379;-65
2022/10/27 02:59:47;;;;;;;47.40;27.90;;;;;;;3.69;94.26;100290.74;420687;1275;165786;-62
2022/10/27 03:09:58;;;;;;;41.90;30.20;;;;;;;3.70;94.92;100285.17;420016;1274;142934;-63
2022/10/27 03:20:04;;;;;;;35.90;28.10;;;;;;;3.66;95.18;100289.42;420764;1272;144004;-63
2022/10/27 03:30:13;;;;;;;32.40;27.80;;;;;;;3.64;95.50;100293.97;419885;1279;143224;-64
2022/10/27 03:40:18;;;;;;;40.20;29.40;;;;;;;3.57;95.48;100290.86;422495;1275;184810;-63
2022/10/27 03:50:24;;;;;;;48.90;28.60;;;;;;;3.46;95.13;100302.88;422611;1272;145898;-63
2022/10/27 04:00:32;;;;;;;38.60;26.00;;;;;;;3.40;94.99;100308.20;421737;1274;144635;-63
2022/10/27 04:10:37;;;;;;;34.50;26.50;;;;;;;3.39;95.60;100315.51;420734;1271;147719;-63
2022/10/27 04:20:43;;;;;;;35.70;26.10;;;;;;;3.28;94.96;100319.38;419388;1274;141854;-62
2022/10/27 04:30:49;;;;;;;50.70;27.90;;;;;;;3.22;94.81;100328.85;419923;1274;143789;-63
2022/10/27 04:40:55;;;;;;;47.30;28.90;;;;;;;3.17;95.31;100323.09;419975;1273;148626;-63
2022/10/27 04:51:01;;;;;;;37.50;25.90;;;;;;;3.17;95.68;100331.72;419449;1274;143635;-64
2022/10/27 05:01:12;;;;;;;41.20;29.10;;;;;;;3.14;95.41;100344.23;422765;1275;145222;-63
2022/10/27 05:11:17;;;;;;;45.40;26.70;;;;;;;3.14;95.25;100351.86;423126;1275;143054;-62
2022/10/27 05:21:23;;;;;;;47.30;29.10;;;;;;;3.13;95.29;100353.96;420337;1274;143747;-62
2022/10/27 05:31:29;;;;;;;40.60;27.60;;;;;;;3.20;95.77;100364.00;436696;1274;144512;-63
2022/10/27 05:41:35;;;;;;;39.20;28.50;;;;;;;3.38;96.23;100364.84;434550;1288;145214;-63
2022/10/27 05:51:40;;;;;;;38.50;27.10;;;;;;;3.85;97.56;100365.16;436811;1282;142918;-63
2022/10/27 06:01:46;;;;;;;41.20;28.30;;;;;;;4.48;98.66;100388.93;431707;1275;141761;-62
2022/10/27 06:11:52;;;;;;;47.50;27.70;;;;;;;4.92;98.53;100396.27;436020;1281;145505;-62
2022/10/27 06:21:58;;;;;;;48.30;30.30;;;;;;;5.69;98.51;100405.84;436804;1281;142893;-63
2022/10/27 06:32:03;;;;;;;28.90;24.30;;;;;;;7.61;98.64;100407.90;436808;1275;145049;-62
2022/10/27 06:42:09;;;;;;;25.40;22.70;;;;;;;11.12;96.09;100417.89;436005;1281;143104;-62
2022/10/27 06:52:14;;;;;;;23.60;19.60;;;;;;;14.85;90.46;100429.65;436761;1281;143206;-63
2022/10/27 07:02:21;;;;;;;26.00;18.70;;;;;;;18.01;84.04;100435.61;427430;1275;143430;-62
2022/10/27 07:12:27;;;;;;;22.70;20.00;;;;;;;21.28;78.62;100437.02;436328;1289;213519;-63
2022/10/27 07:22:33;;;;;;;28.60;22.80;;;;;;;23.97;72.02;100435.19;436800;1281;142799;-63
2022/10/27 07:32:39;;;;;;;23.80;18.60;;;;;;;25.46;65.61;100447.91;436073;1275;146010;-62
2022/10/27 07:42:46;;;;;;;22.00;16.00;;;;;;;22.77;63.32;100471.69;436712;1281;142168;-62
2022/10/27 07:52:52;;;;;;;22.80;17.30;;;;;;;20.62;63.87;100477.71;436753;1284;142461;-62
2022/10/27 08:03:00;;;;;;;15.60;14.10;;;;;;;22.86;62.33;100484.32;423573;1281;143953;-63
2022/10/27 08:13:07;;;;;;;13.40;11.60;;;;;;;25.17;58.56;100486.98;436821;1277;142983;-63
2022/10/27 08:23:14;;;;;;;14.30;10.30;;;;;;;27.48;55.50;100492.09;436801;1281;144118;-63
2022/10/27 08:33:20;;;;;;;14.60;11.30;;;;;;;29.70;51.25;100490.39;436085;1278;144267;-63
2022/10/27 08:43:58;;;;;;;12.10;10.90;;;;;;;30.92;47.82;100496.39;436793;1281;142310;-63
2022/10/27 08:54:06;;;;;;;13.30;10.20;;;;;;;31.39;45.77;100494.58;436031;1281;143093;-64
2022/10/27 09:04:28;;;;;;;12.90;11.00;;;;;;;30.91;43.93;100493.27;434370;1281;143063;-63
2022/10/27 09:14:52;;;;;;;11.10;9.70;;;;;;;30.67;43.62;100482.83;436043;1281;142433;-63
2022/10/27 09:25:02;;;;;;;10.20;9.30;;;;;;;27.62;44.58;100481.98;436760;1274;142827;-66
2022/10/27 09:35:13;;;;;;;13.80;10.90;;;;;;;23.49;47.60;100502.56;436763;1289;145056;-65
2022/10/27 09:45:25;;;;;;;13.70;10.80;;;;;;;20.97;50.74;100503.85;436177;1283;143328;-65
2022/10/27 09:55:51;;;;;;;13.20;10.10;;;;;;;19.71;53.66;100508.43;436349;1289;143150;-65
2022/10/27 10:06:05;;;;;;;12.70;10.30;;;;;;;18.65;55.59;100509.73;435960;1282;143062;-65
2022/10/27 10:16:14;;;;;;;12.20;9.70;;;;;;;17.95;57.37;100511.33;436821;1274;144422;-65
2022/10/27 10:26:22;;;;;;;12.50;10.40;;;;;;;17.24;58.95;100514.58;436787;1281;142680;-65
2022/10/27 10:36:34;;;;;;;11.50;9.00;;;;;;;16.67;60.82;100516.02;436345;1281;211544;-66
2022/10/27 10:46:50;;;;;;;14.00;9.60;;;;;;;16.35;62.27;100513.77;436798;1277;142629;-66
2022/10/27 10:56:57;;;;;;;15.20;10.50;;;;;;;16.30;63.24;100513.92;433098;1281;141801;-64
2022/10/27 11:07:06;;;;;;;12.90;9.50;;;;;;;16.27;64.08;100511.72;427543;1282;142071;-66
2022/10/27 11:17:12;;;;;;;12.90;9.00;;;;;;;16.28;64.54;100514.27;436795;1287;142768;-66
2022/10/27 11:27:26;;;;;;;11.40;9.00;;;;;;;16.34;65.11;100511.52;435992;1281;142124;-65
2022/10/27 11:37:38;;;;;;;11.60;9.10;;;;;;;16.31;65.53;100509.45;436738;1281;147184;-66
2022/10/27 11:47:47;;;;;;;10.70;8.50;;;;;;;16.37;65.98;100504.20;436014;1280;143396;-65
2022/10/27 11:58:02;;;;;;;14.90;9.70;;;;;;;16.45;66.60;100497.84;434656;1282;143147;-65
2022/10/27 12:08:21;;;;;;;16.10;9.90;;;;;;;16.55;66.87;100499.08;436604;1281;142893;-65
2022/10/27 12:18:34;;;;;;;12.50;8.70;;;;;;;16.63;67.05;100497.40;436278;1282;143314;-65
2022/10/27 12:28:40;;;;;;;11.10;8.00;;;;;;;16.67;67.47;100495.85;436753;1281;143769;-65
2022/10/27 12:38:52;;;;;;;15.10;8.90;;;;;;;16.68;67.75;100491.70;435993;1280;143418;-65
2022/10/27 12:49:11;;;;;;;17.50;9.40;;;;;;;16.71;68.15;100491.65;436722;1282;142789;-65
2022/10/27 12:59:29;;;;;;;12.40;9.10;;;;;;;16.73;68.45;100489.77;432135;1279;144050;-65
2022/10/27 13:09:54;;;;;;;10.90;8.80;;;;;;;16.70;68.74;100492.77;436115;1279;212821;-65
2022/10/27 13:20:04;;;;;;;13.10;7.70;;;;;;;16.70;68.99;100491.58;436750;1280;145888;-66
2022/10/27 13:30:19;;;;;;;15.30;7.40;;;;;;;16.70;69.20;100489.27;436052;1287;143124;-66
2022/10/27 13:40:39;;;;;;;9.70;7.90;;;;;;;16.62;69.64;100491.07;436733;1282;143889;-64
2022/10/27 13:50:47;;;;;;;14.20;7.50;;;;;;;16.48;69.97;100490.39;436000;1287;143079;-65
2022/10/27 14:01:14;;;;;;;10.50;7.70;;;;;;;16.28;70.53;100492.89;429475;1281;143019;-64
2022/10/27 14:11:28;;;;;;;11.60;8.20;;;;;;;16.06;71.20;100487.80;434335;1287;143668;-66
2022/10/27 14:21:41;;;;;;;10.80;8.80;;;;;;;15.93;71.70;100491.48;436744;1280;146494;-65
2022/10/27 14:31:46;;;;;;;13.80;8.50;;;;;;;15.80;72.23;100490.13;436659;1289;143048;-65
2022/10/27 14:41:57;;;;;;;12.20;8.20;;;;;;;15.58;72.84;100492.70;427350;1281;143186;-65
2022/10/27 14:52:07;;;;;;;9.00;7.70;;;;;;;15.32;73.40;100492.10;421454;1286;148091;-65
2022/10/27 15:02:13;;;;;;;9.80;6.80;;;;;;;15.04;74.17;100494.83;422792;1281;146678;-65
2022/10/27 15:12:24;;;;;;;12.80;9.30;;;;;;;14.74;74.93;100498.98;420432;1280;146147;-66
2022/10/27 15:22:30;;;;;;;14.10;10.80;;;;;;;14.40;75.71;100506.98;420944;1283;155881;-66
2022/10/27 15:32:38;;;;;;;15.90;10.30;;;;;;;14.03;76.58;100515.88;420927;1281;143693;-66
2022/10/27 15:42:44;;;;;;;17.70;10.50;;;;;;;13.65;77.38;100514.19;420829;1279;143256;-64
2022/10/27 15:52:52;;;;;;;25.20;11.40;;;;;;;13.26;78.14;100512.84;420899;1280;144085;-66
2022/10/27 16:03:01;;;;;;;15.60;10.50;;;;;;;12.86;78.84;100510.77;435272;1280;144507;-65
2022/10/27 16:13:08;;;;;;;22.10;14.70;;;;;;;12.53;79.98;100517.06;428403;1281;145225;-68
2022/10/27 16:23:15;;;;;;;23.50;17.50;;;;;;;12.28;81.61;100528.31;436767;1281;143752;-64
2022/10/27 16:33:23;;;;;;;31.00;24.20;;;;;;;11.98;82.55;100528.20;436046;1280;143670;-65
2022/10/27 16:43:35;;;;;;;30.00;20.10;;;;;;;11.74;83.92;100532.81;430037;1274;143395;-65
2022/10/27 16:53:41;;;;;;;26.80;18.50;;;;;;;11.45;83.80;100538.91;435991;1282;146860;-65
2022/10/27 17:03:47;;;;;;;39.10;18.60;;;;;;;11.17;83.84;100548.38;436795;1281;144527;-66
2022/10/27 17:13:53;;;;;;;37.00;23.30;;;;;;;10.98;84.56;100541.80;436766;1285;142978;-66
2022/10/27 17:23:59;;;;;;;41.60;25.50;;;;;;;10.80;84.89;100548.80;436055;1274;141754;-66
2022/10/27 17:34:04;;;;;;;46.00;28.10;;;;;;;10.62;85.32;100553.90;436751;1282;144544;-66
2022/10/27 17:44:10;;;;;;;62.70;29.40;;;;;;;10.40;85.61;100550.73;436743;1281;143157;-65
2022/10/27 17:54:16;;;;;;;63.30;38.80;;;;;;;10.26;86.39;100552.26;435952;1282;143263;-66
2022/10/27 18:04:21;;;;;;;56.20;32.20;;;;;;;10.16;87.37;100550.07;433892;1280;142513;-65
2022/10/27 18:14:27;;;;;;;73.10;41.00;;;;;;;10.03;87.60;100552.09;425147;1279;163356;-67
2022/10/27 18:24:34;;;;;;;52.40;29.80;;;;;;;9.87;87.86;100557.54;433467;1281;144101;-65
2022/10/27 18:34:41;;;;;;;72.10;40.20;;;;;;;9.67;88.05;100555.42;419805;1276;141929;-67
2022/10/27 18:44:47;;;;;;;71.20;36.50;;;;;;;9.49;88.38;100553.98;419366;1275;141858;-66
2022/10/27 18:54:52;;;;;;;71.10;35.80;;;;;;;9.26;88.21;100562.48;422381;1275;143655;-65
2022/10/27 19:04:58;;;;;;;58.70;36.10;;;;;;;9.06;88.54;100564.19;429062;1278;142343;-66
2022/10/27 19:15:04;;;;;;;69.10;38.60;;;;;;;8.94;89.19;100562.57;420824;1282;142461;-67
2022/10/27 19:25:12;;;;;;;65.90;41.90;;;;;;;8.85;89.43;100567.69;421657;1282;141650;-67
2022/10/27 19:35:18;;;;;;;69.80;39.40;;;;;;;8.76;89.67;100565.61;422119;1279;184051;-66
2022/10/27 19:45:26;;;;;;;64.00;47.10;;;;;;;8.62;89.52;100561.42;421416;1289;142271;-70
2022/10/27 19:55:33;;;;;;;63.80;49.90;;;;;;;8.57;90.43;100559.91;421476;1282;142287;-70
2022/10/27 20:05:39;;;;;;;65.20;44.40;;;;;;;8.52;90.73;100558.86;420781;1281;141597;-69
2022/10/27 20:15:46;;;;;;;62.40;42.50;;;;;;;8.41;90.27;100559.29;421816;1281;142012;-69
2022/10/27 20:25:59;;;;;;;70.00;41.50;;;;;;;8.26;89.93;100560.54;422450;1282;142749;-66
2022/10/27 20:36:25;;;;;;;60.10;45.30;;;;;;;8.18;90.15;100563.84;421112;1282;200223;-67
2022/10/27 20:46:32;;;;;;;73.00;47.30;;;;;;;8.04;89.33;100563.63;423142;1281;144615;-67
2022/10/27 20:56:39;;;;;;;68.10;45.60;;;;;;;7.96;89.81;100569.70;420822;1281;142893;-64
2022/10/27 21:06:47;;;;;;;72.20;47.30;;;;;;;7.96;90.57;100579.99;421584;1277;143477;-69
2022/10/27 21:16:51;;;;;;;;;;;;;;;8.07;92.00;100581.46;420970;1275;142255;-66
2022/10/27 21:26:57;;;;;;;50.10;39.10;;;;;;;8.09;92.70;100573.23;421033;1275;128006;-67
2022/10/27 21:37:04;;;;;;;77.00;48.10;;;;;;;8.07;92.94;100564.57;422466;1275;141695;-69
2022/10/27 21:47:10;;;;;;;59.00;43.00;;;;;;;8.02;93.44;100558.67;421860;1282;143143;-70
2022/10/27 21:57:16;;;;;;;55.50;43.40;;;;;;;8.08;94.27;100543.95;420494;1274;146927;-67
2022/10/27 22:07:22;;;;;;;70.50;47.90;;;;;;;7.91;93.86;100549.66;433289;1281;142935;-65
2022/10/27 22:17:28;;;;;;;50.70;41.10;;;;;;;7.70;93.71;100545.01;421042;1275;142885;-65
2022/10/27 22:27:37;;;;;;;69.40;47.60;;;;;;;7.63;94.29;100544.23;420226;1282;143408;-65
2022/10/27 22:37:43;;;;;;;60.50;45.90;;;;;;;7.36;93.38;100549.02;436751;1274;143174;-67
2022/10/27 22:47:49;;;;;;;63.30;45.70;;;;;;;7.29;94.04;100549.95;420787;1275;143091;-66
2022/10/27 22:57:55;;;;;;;51.40;40.00;;;;;;;7.43;94.94;100554.35;432638;1282;143120;-66
2022/10/27 23:08:01;;;;;;;53.70;37.40;;;;;;;7.23;94.19;100548.78;436775;1282;142814;-66
2022/10/27 23:18:07;;;;;;;52.00;38.40;;;;;;;7.09;93.90;100546.83;435999;1268;142821;-66
2022/10/27 23:28:13;;;;;;;52.00;38.60;;;;;;;7.01;93.82;100534.02;436692;1281;142787;-66
2022/10/27 23:38:18;;;;;;;41.20;34.00;;;;;;;7.03;94.42;100518.79;436430;1284;143098;-65
2022/10/27 23:48:24;;;;;;;43.10;34.20;;;;;;;7.27;95.78;100502.48;431149;1282;197417;-65
2022/10/27 23:58:32;;;;;;;45.00;34.80;;;;;;;7.24;95.68;100496.85;436782;1278;153397;-66
